createdAt,value
2023-03-24T00:00:20.263Z,93804.59
2023-03-24T00:01:17.306Z,93801.16
2023-03-24T00:02:13.981Z,93798.53
2023-03-24T00:03:10.836Z,93775.34
2023-03-24T00:04:07.752Z,93802.75
2023-03-24T00:05:05.641Z,93793.88
2023-03-24T00:06:04.708Z,93809.75
2023-03-24T00:07:03.373Z,93751.66
2023-03-24T00:08:02.077Z,93801.31
2023-03-24T00:09:00.592Z,93801.19
2023-03-24T00:09:57.283Z,93789.84
2023-03-24T00:10:53.856Z,93807.25
2023-03-24T00:11:50.483Z,93801.97
2023-03-24T00:12:47.424Z,93800.72
2023-03-24T00:13:44.233Z,93697.44
2023-03-24T00:14:41.173Z,93802.78
2023-03-24T00:15:37.933Z,93799.16
2023-03-24T00:16:34.938Z,93794.50
2023-03-24T00:17:31.813Z,93794.31
2023-03-24T00:18:30.450Z,93800.34
2023-03-24T00:19:27.130Z,93761.31
2023-03-24T00:20:26.207Z,93785.56
2023-03-24T00:21:24.956Z,93796.47
2023-03-24T00:22:21.771Z,93798.19
2023-03-24T00:23:18.474Z,93800.22
2023-03-24T00:24:15.121Z,93791.34
2023-03-24T00:25:12.127Z,93793.84
2023-03-24T00:26:15.550Z,93794.16
2023-03-24T00:27:13.807Z,93793.56
2023-03-24T00:28:11.304Z,93779.72
2023-03-24T00:29:11.805Z,93792.63
2023-03-24T00:30:11.468Z,93764.47
2023-03-24T00:31:08.923Z,93789.06
2023-03-24T00:32:06.316Z,93787.69
2023-03-24T00:33:04.322Z,93786.56
2023-03-24T00:34:02.973Z,93774.28
2023-03-24T00:35:00.566Z,93773.19
2023-03-24T00:35:57.928Z,93785.59
2023-03-24T00:36:54.687Z,93784.97
2023-03-24T00:37:52.268Z,93744.00
2023-03-24T00:38:50.234Z,93786.53
2023-03-24T00:39:47.117Z,93764.59
2023-03-24T00:40:48.539Z,93788.44
2023-03-24T00:41:46.389Z,93775.50
2023-03-24T00:42:45.905Z,93747.50
2023-03-24T00:43:42.679Z,93773.94
2023-03-24T00:44:39.371Z,93772.09
2023-03-24T00:45:36.090Z,93770.06
2023-03-24T00:46:34.472Z,93774.25
2023-03-24T00:47:36.907Z,93751.84
2023-03-24T00:48:34.189Z,93775.50
2023-03-24T00:49:45.174Z,93776.91
2023-03-24T00:50:47.024Z,93775.50
2023-03-24T00:51:45.693Z,93773.72
2023-03-24T00:52:44.376Z,93769.19
2023-03-24T00:53:43.663Z,93778.19
2023-03-24T00:54:40.896Z,93767.78
2023-03-24T00:55:38.140Z,93754.25
2023-03-24T00:56:37.943Z,93773.56
2023-03-24T00:57:35.149Z,93775.09
2023-03-24T00:58:34.429Z,93779.13
2023-03-24T00:59:31.040Z,93775.56
2023-03-24T01:00:27.794Z,93761.25
2023-03-24T01:01:36.626Z,93752.09
2023-03-24T01:02:33.923Z,93771.13
2023-03-24T01:03:34.206Z,93760.69
2023-03-24T01:04:30.828Z,93763.47
2023-03-24T01:05:30.740Z,93767.81
2023-03-24T01:06:27.386Z,93737.28
2023-03-24T01:07:26.127Z,93773.72
2023-03-24T01:08:22.760Z,93776.06
2023-03-24T01:09:21.650Z,93777.47
2023-03-24T01:10:21.724Z,93780.53
2023-03-24T01:11:18.428Z,93778.19
2023-03-24T01:12:15.023Z,93797.63
2023-03-24T01:13:11.659Z,93779.44
2023-03-24T01:14:09.895Z,93771.47
2023-03-24T01:15:15.451Z,93776.97
2023-03-24T01:16:12.122Z,93769.97
2023-03-24T01:17:09.514Z,93774.81
2023-03-24T01:18:06.534Z,93769.81
2023-03-24T01:19:04.432Z,93769.38
2023-03-24T01:20:07.542Z,93733.88
2023-03-24T01:21:04.236Z,93760.69
2023-03-24T01:22:00.928Z,93771.25
2023-03-24T01:22:57.510Z,93768.31
2023-03-24T01:23:54.742Z,93766.25
2023-03-24T01:24:52.304Z,93764.22
2023-03-24T01:25:51.195Z,93748.66
2023-03-24T01:26:48.116Z,93766.88
2023-03-24T01:27:46.591Z,93767.81
2023-03-24T01:28:43.841Z,93763.13
2023-03-24T01:29:40.712Z,93761.25
2023-03-24T01:30:37.309Z,93763.06
2023-03-24T01:31:34.470Z,93757.78
2023-03-24T01:32:31.286Z,93763.25
2023-03-24T01:33:27.915Z,93764.50
2023-03-24T01:34:25.007Z,93724.22
2023-03-24T01:35:23.194Z,93763.31
2023-03-24T01:36:19.915Z,93761.25
2023-03-24T01:37:16.639Z,93757.06
2023-03-24T01:38:14.912Z,93762.81
2023-03-24T01:39:11.692Z,93752.09
2023-03-24T01:40:11.645Z,93762.53
2023-03-24T01:41:08.656Z,93761.59
2023-03-24T01:42:05.380Z,93754.75
2023-03-24T01:43:02.437Z,93746.38
2023-03-24T01:44:00.243Z,93756.13
2023-03-24T01:45:02.428Z,93759.69
2023-03-24T01:45:59.192Z,93758.72
2023-03-24T01:46:57.220Z,93753.66
2023-03-24T01:47:56.640Z,93759.88
2023-03-24T01:48:55.325Z,93758.75
2023-03-24T01:50:00.001Z,93721.22
2023-03-24T01:51:11.339Z,93754.25
2023-03-24T01:52:22.405Z,93752.56
2023-03-24T01:53:19.059Z,93763.59
2023-03-24T01:54:29.219Z,93768.34
2023-03-24T01:55:26.651Z,93731.50
2023-03-24T01:56:25.011Z,93764.53
2023-03-24T01:57:29.536Z,93762.34
2023-03-24T01:58:29.978Z,93689.13
2023-03-24T01:59:29.924Z,93763.06
2023-03-24T02:00:27.319Z,93759.50
2023-03-24T02:01:26.575Z,93756.41
2023-03-24T02:02:23.719Z,93760.06
2023-03-24T02:03:23.662Z,93764.06
2023-03-24T02:04:20.813Z,93758.00
2023-03-24T02:05:17.862Z,93763.47
2023-03-24T02:06:16.126Z,93754.78
2023-03-24T02:07:30.020Z,93759.53
2023-03-24T02:08:44.574Z,93756.13
2023-03-24T02:09:41.214Z,93752.69
2023-03-24T02:10:38.783Z,93761.41
2023-03-24T02:11:38.469Z,93764.84
2023-03-24T02:12:35.438Z,93708.03
2023-03-24T02:13:32.076Z,93764.97
2023-03-24T02:14:29.047Z,93716.25
2023-03-24T02:15:30.642Z,93758.75
2023-03-24T02:16:48.836Z,93764.53
2023-03-24T02:18:18.744Z,93759.06
2023-03-24T02:19:53.288Z,93754.91
2023-03-24T02:21:16.861Z,93761.00
2023-03-24T02:22:26.278Z,93757.88
2023-03-24T02:23:41.916Z,93758.38
2023-03-24T02:25:11.083Z,93766.41
2023-03-24T02:26:28.908Z,93761.75
2023-03-24T02:27:53.097Z,93765.63
2023-03-24T02:29:20.010Z,93753.81
2023-03-24T02:30:40.552Z,93724.56
2023-03-24T02:31:40.368Z,93754.31
2023-03-24T02:32:57.393Z,93764.88
2023-03-24T02:33:59.674Z,93759.06
2023-03-24T02:35:15.882Z,93759.22
2023-03-24T02:36:24.614Z,93757.06
2023-03-24T02:38:09.448Z,93751.97
2023-03-24T02:39:21.906Z,93749.03
2023-03-24T02:40:33.445Z,93742.78
2023-03-24T02:41:43.684Z,93740.28
2023-03-24T02:43:07.851Z,93736.56
2023-03-24T02:44:12.961Z,93727.53
2023-03-24T02:45:42.949Z,93729.75
2023-03-24T02:46:47.407Z,93734.84
2023-03-24T02:47:50.119Z,93736.84
2023-03-24T02:48:58.283Z,93741.03
2023-03-24T02:50:14.105Z,93702.16
2023-03-24T02:51:16.128Z,93747.59
2023-03-24T02:52:21.580Z,93746.34
2023-03-24T02:53:21.127Z,93746.34
2023-03-24T02:54:34.117Z,93741.50
2023-03-24T02:55:37.193Z,93738.22
2023-03-24T02:56:41.918Z,93740.16
2023-03-24T02:58:01.686Z,93738.00
2023-03-24T02:59:07.235Z,93749.06
2023-03-24T03:00:10.163Z,93747.50
2023-03-24T03:01:32.527Z,93744.56
2023-03-24T03:02:33.231Z,93743.50
2023-03-24T03:03:39.858Z,93744.91
2023-03-24T03:04:46.406Z,93701.47
2023-03-24T03:05:49.220Z,93736.34
2023-03-24T03:06:54.528Z,93731.28
2023-03-24T03:07:54.556Z,93730.38
2023-03-24T03:08:52.001Z,93731.16
2023-03-24T03:10:16.289Z,93736.25
2023-03-24T03:11:16.074Z,93736.06
2023-03-24T03:12:14.109Z,93737.81
2023-03-24T03:13:19.918Z,93732.34
2023-03-24T03:14:32.831Z,93695.91
2023-03-24T03:15:35.948Z,93737.78
2023-03-24T03:16:39.408Z,93736.84
2023-03-24T03:17:41.933Z,93744.31
2023-03-24T03:19:01.607Z,93734.84
2023-03-24T03:20:07.689Z,93734.34
2023-03-24T03:21:13.190Z,93702.91
2023-03-24T03:22:22.042Z,93726.81
2023-03-24T03:23:36.921Z,93727.09
2023-03-24T03:24:39.368Z,93730.69
2023-03-24T03:25:42.248Z,93726.66
2023-03-24T03:26:41.811Z,93718.09
2023-03-24T03:27:41.628Z,93723.09
2023-03-24T03:28:50.023Z,93733.38
2023-03-24T03:29:54.379Z,93688.72
2023-03-24T03:30:54.218Z,93671.72
2023-03-24T03:32:07.676Z,93725.53
2023-03-24T03:33:12.087Z,93719.47
2023-03-24T03:34:17.577Z,93728.19
2023-03-24T03:35:44.929Z,93730.03
2023-03-24T03:36:57.824Z,93693.44
2023-03-24T03:38:06.593Z,93725.22
2023-03-24T03:39:11.441Z,93733.72
2023-03-24T03:40:18.362Z,93732.38
2023-03-24T03:41:18.383Z,93724.72
2023-03-24T03:42:15.416Z,93728.38
2023-03-24T03:43:12.154Z,93729.47
2023-03-24T03:44:09.503Z,93695.34
2023-03-24T03:45:09.381Z,93730.88
2023-03-24T03:46:06.697Z,93717.66
2023-03-24T03:47:04.061Z,93736.50
2023-03-24T03:48:02.122Z,93724.47
2023-03-24T03:48:58.962Z,93742.50
2023-03-24T03:49:55.635Z,93740.59
2023-03-24T03:51:06.326Z,93729.16
2023-03-24T03:52:10.252Z,93740.06
2023-03-24T03:53:07.581Z,93732.97
2023-03-24T03:54:09.246Z,93685.53
2023-03-24T03:55:06.923Z,93675.84
2023-03-24T03:56:04.474Z,93741.69
2023-03-24T03:57:01.723Z,93697.47
2023-03-24T03:57:58.564Z,93737.34
2023-03-24T03:58:55.495Z,93739.97
2023-03-24T03:59:52.131Z,93734.38
2023-03-24T04:00:49.172Z,93744.00
2023-03-24T04:01:46.868Z,93739.44
2023-03-24T04:02:43.572Z,93735.31
2023-03-24T04:04:04.589Z,93736.16
2023-03-24T04:05:19.725Z,93741.66
2023-03-24T04:06:53.911Z,93737.41
2023-03-24T04:08:05.756Z,93734.47
2023-03-24T04:09:17.908Z,93732.75
2023-03-24T04:10:44.619Z,93735.13
2023-03-24T04:11:46.799Z,93739.09
2023-03-24T04:13:04.729Z,93738.09
2023-03-24T04:14:19.453Z,93716.94
2023-03-24T04:15:22.092Z,93735.03
2023-03-24T04:16:27.556Z,93738.56
2023-03-24T04:17:50.467Z,93726.16
2023-03-24T04:19:06.034Z,93734.69
2023-03-24T04:20:16.987Z,93731.94
2023-03-24T04:21:42.410Z,93734.97
2023-03-24T04:22:45.240Z,93732.59
2023-03-24T04:23:54.844Z,93735.16
2023-03-24T04:25:00.148Z,93735.75
2023-03-24T04:25:58.490Z,93732.16
2023-03-24T04:27:01.177Z,93733.84
2023-03-24T04:28:09.708Z,93741.75
2023-03-24T04:29:22.655Z,93741.69
2023-03-24T04:30:34.454Z,93742.81
2023-03-24T04:31:49.428Z,93688.25
2023-03-24T04:33:00.640Z,93737.38
2023-03-24T04:34:32.827Z,93746.06
2023-03-24T04:35:34.443Z,93731.09
2023-03-24T04:36:42.495Z,93746.97
2023-03-24T04:37:40.649Z,93738.94
2023-03-24T04:38:38.458Z,93746.38
2023-03-24T04:39:39.241Z,93731.31
2023-03-24T04:40:41.951Z,93742.25
2023-03-24T04:41:41.324Z,93751.59
2023-03-24T04:42:46.708Z,93736.59
2023-03-24T04:43:45.252Z,93717.31
2023-03-24T04:44:42.518Z,93758.19
2023-03-24T04:45:39.410Z,93756.63
2023-03-24T04:46:36.304Z,93760.19
2023-03-24T04:47:38.679Z,93747.06
2023-03-24T04:48:35.302Z,93767.81
2023-03-24T04:49:32.682Z,93765.34
2023-03-24T04:50:43.076Z,93761.03
2023-03-24T04:51:39.932Z,93768.22
2023-03-24T04:52:40.732Z,93768.06
2023-03-24T04:53:37.334Z,93772.03
2023-03-24T04:54:34.577Z,93767.69
2023-03-24T04:55:49.515Z,93766.91
2023-03-24T04:56:53.849Z,93779.16
2023-03-24T04:57:52.084Z,93769.31
2023-03-24T04:58:48.848Z,93770.16
2023-03-24T04:59:46.232Z,93770.63
2023-03-24T05:00:44.231Z,93773.13
2023-03-24T05:01:41.861Z,93776.41
2023-03-24T05:02:38.636Z,93774.13
2023-03-24T05:03:38.214Z,93768.06
2023-03-24T05:04:37.349Z,93772.25
2023-03-24T05:05:34.046Z,93772.34
2023-03-24T05:06:30.921Z,93751.06
2023-03-24T05:07:27.504Z,93769.63
2023-03-24T05:08:24.179Z,93723.34
2023-03-24T05:09:24.213Z,93702.81
2023-03-24T05:10:22.141Z,93771.44
2023-03-24T05:11:20.709Z,93768.25
2023-03-24T05:12:17.884Z,93778.19
2023-03-24T05:13:15.443Z,93777.75
2023-03-24T05:14:12.090Z,93768.13
2023-03-24T05:15:09.205Z,93772.63
2023-03-24T05:16:06.489Z,93738.03
2023-03-24T05:17:03.240Z,93766.56
2023-03-24T05:18:00.589Z,93775.63
2023-03-24T05:18:57.266Z,93777.88
2023-03-24T05:19:53.806Z,93771.53
2023-03-24T05:20:50.982Z,93777.00
2023-03-24T05:21:47.943Z,93773.00
2023-03-24T05:22:45.025Z,93778.16
2023-03-24T05:23:41.817Z,93783.13
2023-03-24T05:24:40.275Z,93787.09
2023-03-24T05:25:36.951Z,93782.53
2023-03-24T05:26:34.202Z,93782.25
2023-03-24T05:27:31.215Z,93787.53
2023-03-24T05:28:27.916Z,93773.44
2023-03-24T05:29:24.769Z,93742.13
2023-03-24T05:30:21.480Z,93771.53
2023-03-24T05:31:18.207Z,93789.97
2023-03-24T05:32:15.476Z,93786.88
2023-03-24T05:33:12.258Z,93787.66
2023-03-24T05:34:09.090Z,93795.13
2023-03-24T05:35:06.522Z,93796.03
2023-03-24T05:36:03.422Z,93792.31
2023-03-24T05:37:00.240Z,93788.41
2023-03-24T05:37:57.038Z,93796.22
2023-03-24T05:38:53.770Z,93790.00
2023-03-24T05:39:50.630Z,93794.38
2023-03-24T05:40:47.278Z,93794.19
2023-03-24T05:41:44.029Z,93775.34
2023-03-24T05:42:40.639Z,93787.94
2023-03-24T05:43:37.282Z,93790.41
2023-03-24T05:44:34.202Z,93796.97
2023-03-24T05:45:30.897Z,93794.19
2023-03-24T05:46:28.152Z,93794.94
2023-03-24T05:47:24.916Z,93801.94
2023-03-24T05:48:22.343Z,93800.41
2023-03-24T05:49:19.003Z,93790.78
2023-03-24T05:50:15.726Z,93801.03
2023-03-24T05:51:12.337Z,93800.91
2023-03-24T05:52:10.504Z,93799.47
2023-03-24T05:53:07.495Z,93806.34
2023-03-24T05:54:06.294Z,93757.31
2023-03-24T05:55:03.476Z,93797.28
2023-03-24T05:56:00.134Z,93780.81
2023-03-24T05:56:56.905Z,93803.00
2023-03-24T05:57:54.112Z,93750.44
2023-03-24T05:58:51.460Z,93798.94
2023-03-24T05:59:48.237Z,93800.31
2023-03-24T06:00:44.792Z,93801.09
2023-03-24T06:01:42.376Z,93799.84
2023-03-24T06:02:39.915Z,93799.03
2023-03-24T06:03:40.627Z,93802.59
2023-03-24T06:04:38.216Z,93794.06
2023-03-24T06:05:34.894Z,93782.56
2023-03-24T06:06:31.523Z,93689.38
2023-03-24T06:07:30.609Z,93798.72
2023-03-24T06:08:28.585Z,93796.09
2023-03-24T06:09:29.898Z,93792.72
2023-03-24T06:10:27.868Z,93804.50
2023-03-24T06:11:24.526Z,93788.38
2023-03-24T06:12:21.817Z,93799.00
2023-03-24T06:13:18.485Z,93792.22
2023-03-24T06:14:15.069Z,93786.91
2023-03-24T06:15:11.954Z,93798.63
2023-03-24T06:16:09.942Z,93803.84
2023-03-24T06:17:07.964Z,93782.41
2023-03-24T06:18:05.429Z,93804.66
2023-03-24T06:19:02.134Z,93805.97
2023-03-24T06:20:03.000Z,93806.66
2023-03-24T06:20:59.914Z,93800.88
2023-03-24T06:22:02.808Z,93802.72
2023-03-24T06:23:00.132Z,93805.19
2023-03-24T06:23:58.571Z,93809.06
2023-03-24T06:24:56.647Z,93806.06
2023-03-24T06:25:58.344Z,93812.53
2023-03-24T06:27:02.089Z,93806.84
2023-03-24T06:28:04.299Z,93809.72
2023-03-24T06:29:02.144Z,93802.75
2023-03-24T06:29:59.659Z,93815.19
2023-03-24T06:30:58.885Z,93797.13
2023-03-24T06:31:55.945Z,93806.75
2023-03-24T06:32:52.624Z,93809.63
2023-03-24T06:33:51.069Z,93757.53
2023-03-24T06:34:47.777Z,93810.03
2023-03-24T06:35:44.704Z,93817.97
2023-03-24T06:36:41.503Z,93811.44
2023-03-24T06:37:38.177Z,93816.06
2023-03-24T06:38:34.907Z,93806.13
2023-03-24T06:39:31.648Z,93820.19
2023-03-24T06:40:28.349Z,93811.47
2023-03-24T06:41:24.983Z,93818.94
2023-03-24T06:42:21.824Z,93809.22
2023-03-24T06:43:18.483Z,93806.34
2023-03-24T06:44:15.639Z,93801.19
2023-03-24T06:45:12.346Z,93810.09
2023-03-24T06:46:10.193Z,93791.28
2023-03-24T06:47:06.899Z,93812.44
2023-03-24T06:48:03.721Z,93805.97
2023-03-24T06:49:00.588Z,93810.97
2023-03-24T06:49:57.262Z,93803.91
2023-03-24T06:50:55.127Z,93810.31
2023-03-24T06:51:51.897Z,93813.63
2023-03-24T06:52:48.480Z,93805.72
2023-03-24T06:53:45.959Z,93812.56
2023-03-24T06:54:42.694Z,93811.25
2023-03-24T06:55:39.491Z,93820.66
2023-03-24T06:56:36.293Z,93816.53
2023-03-24T06:57:33.021Z,93812.75
2023-03-24T06:58:29.963Z,93811.59
2023-03-24T06:59:28.364Z,93813.41
2023-03-24T07:00:25.863Z,93816.22
2023-03-24T07:01:23.260Z,93818.34
2023-03-24T07:02:19.997Z,93818.16
2023-03-24T07:03:17.372Z,93804.84
2023-03-24T07:04:14.076Z,93822.06
2023-03-24T07:05:11.068Z,93823.41
2023-03-24T07:06:07.797Z,93824.06
2023-03-24T07:07:25.845Z,93823.91
2023-03-24T07:08:36.639Z,93777.16
2023-03-24T07:09:35.077Z,93826.72
2023-03-24T07:10:31.723Z,93821.53
2023-03-24T07:11:28.545Z,93780.19
2023-03-24T07:12:25.779Z,93822.41
2023-03-24T07:13:22.385Z,93807.13
2023-03-24T07:14:19.307Z,93826.41
2023-03-24T07:15:16.292Z,93828.19
2023-03-24T07:16:13.109Z,93786.47
2023-03-24T07:17:12.741Z,93830.72
2023-03-24T07:18:13.617Z,93827.50
2023-03-24T07:19:10.396Z,93780.56
2023-03-24T07:20:08.510Z,93830.22
2023-03-24T07:21:05.602Z,93809.03
2023-03-24T07:22:02.498Z,93825.63
2023-03-24T07:22:59.210Z,93827.41
2023-03-24T07:23:55.964Z,93828.59
2023-03-24T07:24:54.002Z,93829.94
2023-03-24T07:25:51.100Z,93824.34
2023-03-24T07:26:47.798Z,93830.94
2023-03-24T07:27:44.374Z,93830.72
2023-03-24T07:28:41.046Z,93838.13
2023-03-24T07:29:37.663Z,93822.53
2023-03-24T07:30:40.910Z,93794.22
2023-03-24T07:31:39.483Z,93837.44
2023-03-24T07:32:39.217Z,93837.94
2023-03-24T07:33:36.234Z,93831.13
2023-03-24T07:34:32.959Z,93833.50
2023-03-24T07:35:29.973Z,93800.78
2023-03-24T07:36:26.661Z,93792.19
2023-03-24T07:37:23.429Z,93836.56
2023-03-24T07:38:20.018Z,93823.28
2023-03-24T07:39:16.721Z,93832.63
2023-03-24T07:40:13.864Z,93833.03
2023-03-24T07:41:10.558Z,93834.00
2023-03-24T07:42:07.680Z,93833.38
2023-03-24T07:43:06.588Z,93828.38
2023-03-24T07:44:03.369Z,93839.41
2023-03-24T07:44:59.914Z,93830.31
2023-03-24T07:45:56.623Z,93812.56
2023-03-24T07:46:53.563Z,93844.59
2023-03-24T07:47:50.529Z,93835.88
2023-03-24T07:48:47.276Z,93838.31
2023-03-24T07:49:43.882Z,93836.91
2023-03-24T07:50:40.612Z,93835.44
2023-03-24T07:51:40.111Z,93839.38
2023-03-24T07:52:38.765Z,93824.88
2023-03-24T07:53:35.565Z,93834.31
2023-03-24T07:54:33.708Z,93834.75
2023-03-24T07:55:30.384Z,93835.59
2023-03-24T07:56:27.331Z,93778.66
2023-03-24T07:57:24.127Z,93830.13
2023-03-24T07:58:20.755Z,93823.47
2023-03-24T07:59:17.545Z,93823.09
2023-03-24T08:00:17.960Z,93787.66
2023-03-24T08:01:15.518Z,93833.88
2023-03-24T08:02:20.304Z,93832.06
2023-03-24T08:03:17.293Z,93830.03
2023-03-24T08:04:14.419Z,93836.38
2023-03-24T08:05:14.281Z,93831.09
2023-03-24T08:06:12.120Z,93834.88
2023-03-24T08:07:08.991Z,93807.56
2023-03-24T08:08:06.767Z,93825.84
2023-03-24T08:09:04.373Z,93822.50
2023-03-24T08:10:00.999Z,93824.06
2023-03-24T08:10:58.024Z,93833.66
2023-03-24T08:11:54.711Z,93796.44
2023-03-24T08:12:52.050Z,93821.19
2023-03-24T08:13:48.744Z,93821.84
2023-03-24T08:14:45.314Z,93823.53
2023-03-24T08:15:42.002Z,93821.72
2023-03-24T08:16:42.072Z,93824.25
2023-03-24T08:17:39.591Z,93820.59
2023-03-24T08:18:36.186Z,93823.97
2023-03-24T08:19:32.790Z,93824.81
2023-03-24T08:20:29.684Z,93826.38
2023-03-24T08:21:26.631Z,93819.47
2023-03-24T08:22:23.367Z,93817.56
2023-03-24T08:23:20.347Z,93787.19
2023-03-24T08:24:17.615Z,93791.50
2023-03-24T08:25:14.775Z,93821.34
2023-03-24T08:26:11.578Z,93811.13
2023-03-24T08:27:10.002Z,93817.06
2023-03-24T08:28:07.511Z,93796.59
2023-03-24T08:29:04.273Z,93809.41
2023-03-24T08:30:01.079Z,93801.38
2023-03-24T08:30:57.824Z,93807.47
2023-03-24T08:31:54.468Z,93803.75
2023-03-24T08:32:56.633Z,93799.06
2023-03-24T08:33:54.246Z,93810.97
2023-03-24T08:34:50.839Z,93800.78
2023-03-24T08:35:47.783Z,93805.31
2023-03-24T08:36:45.165Z,93806.25
2023-03-24T08:37:43.293Z,93777.56
2023-03-24T08:38:40.114Z,93806.91
2023-03-24T08:39:36.716Z,93805.06
2023-03-24T08:40:38.774Z,93799.41
2023-03-24T08:41:35.514Z,93803.59
2023-03-24T08:42:32.219Z,93795.81
2023-03-24T08:43:30.737Z,93797.50
2023-03-24T08:44:27.434Z,93795.91
2023-03-24T08:45:27.676Z,93793.25
2023-03-24T08:46:24.380Z,93793.31
2023-03-24T08:47:21.019Z,93795.28
2023-03-24T08:48:17.801Z,93792.75
2023-03-24T08:49:14.499Z,93793.88
2023-03-24T08:50:11.840Z,93780.66
2023-03-24T08:51:16.592Z,93756.25
2023-03-24T08:52:13.232Z,93782.94
2023-03-24T08:53:13.928Z,93780.84
2023-03-24T08:54:12.655Z,93783.31
2023-03-24T08:55:10.209Z,93784.84
2023-03-24T08:56:08.040Z,93774.81
2023-03-24T08:57:04.758Z,93781.97
2023-03-24T08:58:01.751Z,93784.44
2023-03-24T08:58:59.185Z,93780.72
2023-03-24T08:59:56.038Z,93757.06
2023-03-24T09:00:52.968Z,93776.06
2023-03-24T09:01:49.846Z,93781.69
2023-03-24T09:02:48.769Z,93765.50
2023-03-24T09:03:46.416Z,93734.00
2023-03-24T09:04:43.185Z,93768.13
2023-03-24T09:05:44.719Z,93773.91
2023-03-24T09:06:41.808Z,93771.00
2023-03-24T09:07:38.993Z,93775.34
2023-03-24T09:08:35.912Z,93775.38
2023-03-24T09:09:33.861Z,93777.00
2023-03-24T09:10:30.666Z,93775.66
2023-03-24T09:11:27.346Z,93769.50
2023-03-24T09:12:24.059Z,93769.50
2023-03-24T09:13:21.385Z,93768.13
2023-03-24T09:14:18.276Z,93768.47
2023-03-24T09:15:15.453Z,93772.78
2023-03-24T09:16:12.316Z,93733.13
2023-03-24T09:17:09.660Z,93775.38
2023-03-24T09:18:06.552Z,93676.53
2023-03-24T09:19:03.445Z,93769.56
2023-03-24T09:20:02.011Z,93766.78
2023-03-24T09:20:59.294Z,93770.44
2023-03-24T09:21:55.949Z,93760.38
2023-03-24T09:22:52.700Z,93762.16
2023-03-24T09:23:49.332Z,93764.19
2023-03-24T09:24:49.122Z,93765.03
2023-03-24T09:25:45.953Z,93763.72
2023-03-24T09:26:42.626Z,93760.78
2023-03-24T09:27:39.872Z,93763.72
2023-03-24T09:28:36.481Z,93758.44
2023-03-24T09:29:33.123Z,93760.69
2023-03-24T09:30:31.292Z,93750.38
2023-03-24T09:31:28.866Z,93760.69
2023-03-24T09:32:25.938Z,93747.41
2023-03-24T09:33:24.128Z,93756.22
2023-03-24T09:34:21.671Z,93756.78
2023-03-24T09:35:18.405Z,93708.56
2023-03-24T09:36:15.105Z,93764.06
2023-03-24T09:37:11.776Z,93747.66
2023-03-24T09:38:10.852Z,93737.91
2023-03-24T09:39:07.684Z,93752.41
2023-03-24T09:40:05.146Z,93750.78
2023-03-24T09:41:05.231Z,93715.97
2023-03-24T09:42:04.891Z,93742.56
2023-03-24T09:43:27.337Z,93749.53
2023-03-24T09:44:51.199Z,93743.44
2023-03-24T09:45:51.334Z,93722.63
2023-03-24T09:47:21.703Z,93739.56
2023-03-24T09:48:30.084Z,93736.25
2023-03-24T09:49:33.821Z,93739.16
2023-03-24T09:50:49.480Z,93734.50
2023-03-24T09:51:47.031Z,93737.63
2023-03-24T09:52:48.497Z,93741.69
2023-03-24T09:54:03.821Z,93736.44
2023-03-24T09:55:02.714Z,93729.97
2023-03-24T09:56:04.736Z,93722.16
2023-03-24T09:57:02.164Z,93735.94
2023-03-24T09:58:08.415Z,93732.56
2023-03-24T09:59:18.162Z,93734.19
2023-03-24T10:00:31.675Z,93738.69
2023-03-24T10:01:28.367Z,93727.94
2023-03-24T10:02:30.841Z,93703.75
2023-03-24T10:03:27.751Z,93729.44
2023-03-24T10:04:27.637Z,93735.34
2023-03-24T10:05:29.402Z,93728.81
2023-03-24T10:06:35.989Z,93728.91
2023-03-24T10:07:59.714Z,93719.97
2023-03-24T10:09:05.096Z,93731.13
2023-03-24T10:10:02.210Z,93723.19
2023-03-24T10:11:11.458Z,93717.22
2023-03-24T10:12:21.950Z,93726.16
2023-03-24T10:14:03.213Z,93722.66
2023-03-24T10:15:37.313Z,93721.31
2023-03-24T10:17:11.520Z,93719.81
2023-03-24T10:18:26.435Z,93714.53
2023-03-24T10:19:59.641Z,93712.66
2023-03-24T10:21:07.092Z,93708.78
2023-03-24T10:22:15.745Z,93707.44
2023-03-24T10:23:30.860Z,93711.22
2023-03-24T10:24:39.193Z,93705.84
2023-03-24T10:25:38.872Z,93707.06
2023-03-24T10:26:47.030Z,93705.59
2023-03-24T10:27:49.304Z,93688.53
2023-03-24T10:29:12.260Z,93711.25
2023-03-24T10:30:17.754Z,93707.63
2023-03-24T10:31:17.571Z,93673.16
2023-03-24T10:32:27.886Z,93700.63
2023-03-24T10:33:25.245Z,93642.94
2023-03-24T10:34:25.123Z,93692.81
2023-03-24T10:35:27.781Z,93681.69
2023-03-24T10:36:25.388Z,93682.84
2023-03-24T10:37:22.370Z,93694.78
2023-03-24T10:38:21.544Z,93700.53
2023-03-24T10:39:21.076Z,93692.88
2023-03-24T10:40:27.187Z,93692.88
2023-03-24T10:41:32.767Z,93704.03
2023-03-24T10:42:34.377Z,93700.56
2023-03-24T10:43:32.364Z,93686.31
2023-03-24T10:44:29.918Z,93670.91
2023-03-24T10:45:30.034Z,93693.22
2023-03-24T10:46:29.965Z,93671.31
2023-03-24T10:47:30.696Z,93695.19
2023-03-24T10:48:40.586Z,93699.78
2023-03-24T10:49:38.175Z,93697.47
2023-03-24T10:50:36.205Z,93689.03
2023-03-24T10:51:36.775Z,93690.16
2023-03-24T10:52:42.829Z,93701.72
2023-03-24T10:53:39.828Z,93690.16
2023-03-24T10:54:37.125Z,93691.72
2023-03-24T10:55:39.262Z,93681.34
2023-03-24T10:56:41.358Z,93691.72
2023-03-24T10:57:38.198Z,93688.22
2023-03-24T10:58:40.977Z,93694.03
2023-03-24T10:59:47.324Z,93687.47
2023-03-24T11:00:45.303Z,93681.66
2023-03-24T11:01:42.210Z,93683.75
2023-03-24T11:02:42.698Z,93695.00
2023-03-24T11:03:39.556Z,93680.44
2023-03-24T11:04:41.739Z,93698.06
2023-03-24T11:05:40.996Z,93687.03
2023-03-24T11:06:37.726Z,93692.78
2023-03-24T11:07:38.899Z,93684.25
2023-03-24T11:08:42.115Z,93690.31
2023-03-24T11:09:41.212Z,93677.44
2023-03-24T11:10:37.969Z,93680.16
2023-03-24T11:11:35.757Z,93651.66
2023-03-24T11:12:36.799Z,93680.06
2023-03-24T11:13:34.572Z,93667.47
2023-03-24T11:14:31.571Z,93673.94
2023-03-24T11:15:31.159Z,93666.88
2023-03-24T11:16:39.326Z,93672.59
2023-03-24T11:17:36.031Z,93671.47
2023-03-24T11:18:33.280Z,93669.63
2023-03-24T11:19:32.610Z,93639.88
2023-03-24T11:20:36.354Z,93628.88
2023-03-24T11:21:37.040Z,93664.47
2023-03-24T11:22:33.860Z,93662.06
2023-03-24T11:23:32.435Z,93660.88
2023-03-24T11:24:30.042Z,93658.94
2023-03-24T11:25:34.203Z,93624.06
2023-03-24T11:26:36.549Z,93642.91
2023-03-24T11:27:44.372Z,93656.91
2023-03-24T11:29:12.835Z,93654.84
2023-03-24T11:30:13.700Z,93612.53
2023-03-24T11:31:19.259Z,93649.38
2023-03-24T11:32:28.030Z,93647.72
2023-03-24T11:33:35.646Z,93645.81
2023-03-24T11:34:42.162Z,93644.72
2023-03-24T11:35:59.319Z,93636.91
2023-03-24T11:37:05.513Z,93634.75
2023-03-24T11:38:06.583Z,93635.34
2023-03-24T11:39:11.630Z,93630.38
2023-03-24T11:40:15.399Z,93636.34
2023-03-24T11:41:21.862Z,93629.16
2023-03-24T11:42:18.631Z,93629.97
2023-03-24T11:43:21.263Z,93593.91
2023-03-24T11:44:24.331Z,93604.00
2023-03-24T11:45:33.238Z,93624.09
2023-03-24T11:46:29.926Z,93628.44
2023-03-24T11:47:36.684Z,93630.16
2023-03-24T11:48:41.819Z,93616.41
2023-03-24T11:49:45.749Z,93626.47
2023-03-24T11:50:42.769Z,93616.66
2023-03-24T11:51:43.151Z,93623.66
2023-03-24T11:52:49.152Z,93620.97
2023-03-24T11:53:50.925Z,93619.69
2023-03-24T11:54:47.563Z,93611.44
2023-03-24T11:56:10.679Z,93610.13
2023-03-24T11:57:14.601Z,93580.69
2023-03-24T11:58:49.683Z,93607.00